createdAt,value
2018-03-16T00:07:45.579Z,25
2018-03-16T00:17:45.492Z,26
2018-03-16T00:27:45.488Z,27
2018-03-16T00:37:45.472Z,28
2018-03-16T00:47:45.388Z,27
2018-03-16T00:57:45.483Z,26
2018-03-16T01:07:47.352Z,28
2018-03-16T01:17:47.464Z,28
2018-03-16T01:27:46.386Z,27
2018-03-16T01:37:45.456Z,29
2018-03-16T01:47:45.463Z,29
2018-03-16T01:57:45.514Z,31
2018-03-16T02:07:45.464Z,31
2018-03-16T02:17:45.363Z,31
2018-03-16T02:27:46.431Z,31
2018-03-16T02:37:45.398Z,29
2018-03-16T02:47:45.403Z,32
2018-03-16T02:57:45.496Z,31
2018-03-16T03:07:45.452Z,33
2018-03-16T03:17:46.395Z,32
2018-03-16T03:27:46.444Z,33
2018-03-16T03:37:46.377Z,33
2018-03-16T03:47:45.503Z,34
2018-03-16T03:57:46.443Z,36
2018-03-16T04:07:45.394Z,35
2018-03-16T04:17:45.466Z,39
2018-03-16T04:27:45.332Z,36
2018-03-16T04:37:45.353Z,35
2018-03-16T04:47:45.432Z,34
2018-03-16T04:57:45.348Z,38
2018-03-16T05:07:45.404Z,36
2018-03-16T05:17:46.437Z,38
2018-03-16T05:27:46.361Z,39
2018-03-16T05:37:45.419Z,35
2018-03-16T05:47:45.360Z,36
2018-03-16T05:57:45.385Z,37
2018-03-16T06:07:45.398Z,36
2018-03-16T06:17:45.386Z,36
2018-03-16T06:27:57.075Z,38
2018-03-16T06:37:45.400Z,37
2018-03-16T06:47:45.395Z,37
2018-03-16T06:57:45.467Z,42
2018-03-16T07:07:45.335Z,35
2018-03-16T07:17:45.327Z,37
2018-03-16T07:27:48.429Z,38
2018-03-16T07:37:45.382Z,36
2018-03-16T07:47:45.860Z,37
2018-03-16T07:57:45.482Z,35
2018-03-16T08:07:46.474Z,33
2018-03-16T08:17:45.401Z,31
2018-03-16T08:27:46.432Z,34
2018-03-16T08:37:45.398Z,27
2018-03-16T08:47:45.396Z,30
2018-03-16T08:57:45.485Z,29
2018-03-16T09:07:45.473Z,31
2018-03-16T09:17:45.501Z,26
2018-03-16T09:27:45.422Z,28
2018-03-16T09:37:45.363Z,25
2018-03-16T09:47:45.481Z,19
2018-03-16T09:57:45.298Z,16
2018-03-16T10:07:45.281Z,17
2018-03-16T10:17:45.422Z,16
2018-03-16T10:27:46.348Z,13
2018-03-16T10:37:45.423Z,14
2018-03-16T10:47:45.356Z,17
2018-03-16T10:57:45.303Z,17
2018-03-16T11:07:45.280Z,14
2018-03-16T11:17:45.350Z,16
2018-03-16T11:27:45.313Z,16
2018-03-16T11:37:45.300Z,15
2018-03-16T11:47:45.281Z,15
2018-03-16T11:57:45.184Z,16
2018-03-16T12:07:45.348Z,13
2018-03-16T12:17:45.269Z,11
2018-03-16T12:27:45.338Z,14
2018-03-16T12:37:45.259Z,14
2018-03-16T12:47:45.216Z,15
2018-03-16T12:57:58.614Z,14
2018-03-16T13:07:45.226Z,14
2018-03-16T13:17:52.421Z,15
2018-03-16T13:27:46.320Z,19
2018-03-16T13:37:45.300Z,19
2018-03-16T13:47:45.300Z,19
2018-03-16T13:57:45.326Z,17
2018-03-16T14:07:45.270Z,16
2018-03-16T14:17:48.276Z,15
2018-03-16T14:27:45.288Z,14
2018-03-16T14:37:45.651Z,16
2018-03-16T14:47:45.281Z,16
2018-03-16T14:57:45.158Z,16
2018-03-16T15:07:45.272Z,16
2018-03-16T15:17:45.283Z,13
2018-03-16T15:27:45.211Z,14
2018-03-16T15:37:45.323Z,15
2018-03-16T15:47:45.316Z,14
2018-03-16T15:57:45.177Z,13
2018-03-16T16:07:45.257Z,12
2018-03-16T16:17:45.425Z,11
2018-03-16T16:27:45.353Z,14
2018-03-16T16:37:45.228Z,12
2018-03-16T16:47:45.286Z,11
2018-03-16T16:57:45.223Z,14
2018-03-16T17:07:45.223Z,12
2018-03-16T17:17:45.131Z,9
2018-03-16T17:27:45.280Z,9
2018-03-16T17:37:45.314Z,9
2018-03-16T17:47:45.193Z,8
2018-03-16T17:57:45.228Z,13
2018-03-16T18:07:45.149Z,13
2018-03-16T18:17:45.285Z,11
2018-03-16T18:27:45.178Z,11
2018-03-16T18:37:45.213Z,10
2018-03-16T18:47:45.271Z,13
2018-03-16T18:57:45.267Z,12
2018-03-16T19:07:45.188Z,10
2018-03-16T19:17:45.171Z,11
2018-03-16T19:27:45.175Z,12
2018-03-16T19:37:45.200Z,11
2018-03-16T19:47:45.257Z,9
2018-03-16T19:57:45.187Z,10
2018-03-16T20:07:45.258Z,10
2018-03-16T20:17:45.226Z,8
2018-03-16T20:27:45.058Z,11
2018-03-16T20:37:45.221Z,10
2018-03-16T20:47:45.152Z,9
2018-03-16T20:57:45.178Z,11
2018-03-16T21:07:45.264Z,11
2018-03-16T21:17:45.258Z,10
2018-03-16T21:27:45.097Z,7
2018-03-16T21:37:45.275Z,10
2018-03-16T21:47:45.138Z,7
2018-03-16T21:57:45.089Z,8
2018-03-16T22:07:45.277Z,6
2018-03-16T22:17:45.595Z,7
2018-03-16T22:27:45.088Z,8
2018-03-16T22:37:45.364Z,8
2018-03-16T22:47:45.602Z,5
2018-03-16T22:57:48.210Z,4
2018-03-16T23:07:45.379Z,7
2018-03-16T23:17:51.748Z,4
2018-03-16T23:27:45.421Z,7
2018-03-16T23:37:59.678Z,7
2018-03-16T23:48:56.549Z,6
2018-03-16T23:58:09.827Z,7
